createdAt,value
2019-05-02T00:02:30.533Z,62.25
2019-05-02T00:04:58.716Z,62.08
2019-05-02T00:07:26.529Z,60.94
2019-05-02T00:09:54.345Z,59.55
2019-05-02T00:12:22.684Z,58.02
2019-05-02T00:14:56.458Z,58.12
2019-05-02T00:17:25.727Z,58.61
2019-05-02T00:19:52.965Z,59.15
2019-05-02T00:22:20.958Z,60.90
2019-05-02T00:24:48.556Z,61.84
2019-05-02T00:27:16.297Z,61.99
2019-05-02T00:29:43.971Z,61.48
2019-05-02T00:32:11.695Z,60.93
2019-05-02T00:34:39.330Z,62.04
2019-05-02T00:37:07.091Z,62.40
2019-05-02T00:39:34.650Z,64.18
2019-05-02T00:42:12.388Z,63.19
2019-05-02T00:44:31.853Z,64.11
2019-05-02T00:47:10.878Z,63.67
2019-05-02T00:49:38.584Z,63.26
2019-05-02T00:52:06.554Z,64.71
2019-05-02T00:54:34.472Z,65.13
2019-05-02T00:57:02.333Z,65.47
2019-05-02T00:59:30.152Z,65.77
2019-05-02T01:02:20.363Z,65.56
2019-05-02T01:04:48.653Z,66.20
2019-05-02T01:07:20.515Z,66.38
2019-05-02T01:09:46.874Z,65.57
2019-05-02T01:12:26.344Z,66.10
2019-05-02T01:14:45.475Z,66.15
2019-05-02T01:17:13.279Z,66.63
2019-05-02T01:19:40.959Z,67.74
2019-05-02T01:22:10.716Z,68.11
2019-05-02T01:24:39.941Z,68.48
2019-05-02T01:27:15.655Z,67.25
2019-05-02T01:30:11.461Z,67.43
2019-05-02T01:33:01.489Z,67.55
2019-05-02T01:35:46.452Z,66.76
2019-05-02T01:38:19.776Z,66.59
2019-05-02T01:40:53.066Z,66.36
2019-05-02T01:43:23.992Z,67.12
2019-05-02T01:45:52.034Z,67.45
2019-05-02T01:48:20.042Z,68.72
2019-05-02T01:50:47.798Z,69.26
2019-05-02T01:53:15.467Z,68.68
2019-05-02T01:55:43.220Z,68.32
2019-05-02T01:58:14.930Z,68.27
2019-05-02T02:00:44.465Z,68.61
2019-05-02T02:03:10.422Z,68.34
2019-05-02T02:05:38.542Z,67.55
2019-05-02T02:08:06.419Z,67.70
2019-05-02T02:10:34.130Z,67.60
2019-05-02T02:13:04.911Z,69.46
2019-05-02T02:15:31.734Z,70.00
2019-05-02T02:17:59.396Z,69.86
2019-05-02T02:20:29.984Z,69.54
2019-05-02T02:23:28.977Z,69.34
2019-05-02T02:26:01.628Z,70.22
2019-05-02T02:28:31.989Z,70.71
2019-05-02T02:31:05.073Z,70.86
2019-05-02T02:33:28.262Z,72.03
2019-05-02T02:35:55.901Z,72.15
2019-05-02T02:38:26.937Z,72.41
2019-05-02T02:40:53.305Z,72.70
2019-05-02T02:43:33.670Z,73.27
2019-05-02T02:46:04.236Z,73.16
2019-05-02T02:48:33.577Z,73.34
2019-05-02T02:51:02.414Z,73.64
2019-05-02T02:53:30.234Z,73.78
2019-05-02T02:56:01.695Z,74.32
2019-05-02T02:58:29.145Z,74.38
2019-05-02T03:00:57.131Z,74.45
2019-05-02T03:03:27.736Z,74.63
2019-05-02T03:05:58.805Z,74.71
2019-05-02T03:08:24.362Z,74.95
2019-05-02T03:10:52.115Z,75.75
2019-05-02T03:13:51.344Z,75.69
2019-05-02T03:16:11.927Z,76.98
2019-05-02T03:18:40.566Z,77.08
2019-05-02T03:21:13.185Z,77.20
2019-05-02T03:23:39.635Z,77.65
2019-05-02T03:26:08.070Z,77.98
2019-05-02T03:28:36.921Z,77.88
2019-05-02T03:31:21.626Z,77.82
2019-05-02T03:33:52.591Z,77.80
2019-05-02T03:36:03.967Z,77.47
2019-05-02T03:38:34.853Z,78.37
2019-05-02T03:41:01.476Z,77.74
2019-05-02T03:43:28.997Z,78.28
2019-05-02T03:45:56.734Z,77.87
2019-05-02T03:48:25.579Z,77.88
2019-05-02T03:50:55.083Z,77.92
2019-05-02T03:53:25.331Z,78.01
2019-05-02T03:55:52.876Z,78.66
2019-05-02T03:58:20.545Z,78.92
2019-05-02T04:01:00.801Z,78.37
2019-05-02T04:03:18.955Z,78.21
2019-05-02T04:05:46.855Z,78.66
2019-05-02T04:08:20.765Z,79.05
2019-05-02T04:11:25.576Z,78.76
2019-05-02T04:13:54.447Z,79.05
2019-05-02T04:16:24.772Z,79.04
2019-05-02T04:18:55.846Z,79.19
2019-05-02T04:21:25.912Z,78.90
2019-05-02T04:23:52.989Z,78.97
2019-05-02T04:26:20.815Z,79.65
2019-05-02T04:28:51.886Z,79.92
2019-05-02T04:31:18.195Z,78.61
2019-05-02T04:33:45.986Z,78.93
2019-05-02T04:36:17.419Z,79.02
2019-05-02T04:38:47.871Z,79.19
2019-05-02T04:41:21.353Z,78.98
2019-05-02T04:43:51.447Z,78.61
2019-05-02T04:46:22.050Z,78.16
2019-05-02T04:48:48.648Z,78.19
2019-05-02T04:51:16.345Z,77.74
2019-05-02T04:53:45.253Z,77.72
2019-05-02T04:56:10.927Z,78.12
2019-05-02T04:58:40.691Z,77.80
2019-05-02T05:01:10.167Z,78.71
2019-05-02T05:03:37.755Z,78.64
2019-05-02T05:06:10.786Z,78.69
2019-05-02T05:08:34.828Z,78.72
2019-05-02T05:11:02.454Z,78.19
2019-05-02T05:13:30.046Z,77.79
2019-05-02T05:15:57.649Z,77.91
2019-05-02T05:18:27.389Z,77.08
2019-05-02T05:20:54.973Z,76.26
2019-05-02T05:23:51.832Z,76.96
2019-05-02T05:26:17.605Z,77.72
2019-05-02T05:28:45.330Z,76.09
2019-05-02T05:31:18.439Z,75.51
2019-05-02T05:33:42.654Z,74.95
2019-05-02T05:36:10.592Z,74.45
2019-05-02T05:38:40.566Z,74.10
2019-05-02T05:41:11.438Z,74.25
2019-05-02T05:43:38.626Z,74.25
2019-05-02T05:46:12.341Z,72.03
2019-05-02T05:48:39.159Z,72.28
2019-05-02T05:51:07.287Z,71.40
2019-05-02T05:53:37.369Z,70.72
2019-05-02T05:56:04.957Z,71.44
2019-05-02T05:58:32.772Z,70.74
2019-05-02T06:01:00.462Z,70.90
2019-05-02T06:03:28.052Z,67.70
2019-05-02T06:05:57.653Z,68.01
2019-05-02T06:08:25.545Z,67.03
2019-05-02T06:10:53.162Z,66.14
2019-05-02T06:13:20.850Z,65.14
2019-05-02T06:16:01.290Z,64.45
2019-05-02T06:18:18.016Z,65.51
2019-05-02T06:20:45.726Z,64.14
2019-05-02T06:23:13.272Z,65.05
2019-05-02T06:25:42.746Z,64.34
2019-05-02T06:28:11.678Z,62.82
2019-05-02T06:30:39.318Z,61.80
2019-05-02T06:33:06.866Z,59.87
2019-05-02T06:35:34.590Z,61.55
2019-05-02T06:38:02.175Z,60.54
2019-05-02T06:40:29.833Z,58.84
2019-05-02T06:42:57.397Z,58.01
2019-05-02T06:45:25.201Z,55.32
2019-05-02T06:47:52.842Z,55.43
2019-05-02T06:50:20.700Z,53.61
2019-05-02T06:52:49.909Z,55.81
2019-05-02T06:55:17.657Z,53.50
2019-05-02T06:57:45.204Z,52.77
2019-05-02T07:00:13.108Z,54.00
2019-05-02T07:02:41.970Z,53.04
2019-05-02T07:05:09.807Z,50.68
2019-05-02T07:07:37.775Z,52.91
2019-05-02T07:10:07.443Z,52.88
2019-05-02T07:12:35.259Z,53.77
2019-05-02T07:15:08.320Z,55.22
2019-05-02T07:17:39.297Z,53.91
2019-05-02T07:20:07.096Z,53.93
2019-05-02T07:22:38.904Z,51.72
2019-05-02T07:25:06.868Z,51.63
2019-05-02T07:27:35.609Z,51.67
2019-05-02T07:30:04.345Z,51.87
2019-05-02T07:32:32.982Z,51.86
2019-05-02T07:35:00.654Z,50.25
2019-05-02T07:37:28.266Z,49.39
2019-05-02T07:39:56.916Z,51.08
2019-05-02T07:42:24.584Z,48.14
2019-05-02T07:44:52.145Z,46.79
2019-05-02T07:47:19.673Z,45.74
2019-05-02T07:49:47.311Z,42.80
2019-05-02T07:52:14.909Z,41.47
2019-05-02T07:54:42.557Z,40.59
2019-05-02T07:57:10.132Z,35.86
2019-05-02T07:59:37.765Z,33.62
2019-05-02T08:02:05.366Z,32.41
2019-05-02T08:04:33.079Z,31.89
2019-05-02T08:07:00.588Z,31.74
2019-05-02T08:09:28.220Z,30.47
2019-05-02T08:11:55.820Z,30.35
2019-05-02T08:14:24.588Z,28.74
2019-05-02T08:17:04.889Z,25.80
2019-05-02T08:19:23.539Z,27.79
2019-05-02T08:21:51.417Z,26.52
2019-05-02T08:24:20.661Z,27.97
2019-05-02T08:27:23.347Z,26.91
2019-05-02T08:29:52.164Z,26.81
2019-05-02T08:32:19.848Z,25.54
2019-05-02T08:34:51.615Z,25.99
2019-05-02T08:37:17.006Z,25.05
2019-05-02T08:39:44.729Z,24.28
2019-05-02T08:42:12.384Z,25.03
2019-05-02T08:44:50.758Z,24.41
2019-05-02T08:47:18.763Z,24.38
2019-05-02T08:49:39.217Z,25.40
2019-05-02T08:52:06.922Z,24.87
2019-05-02T08:54:34.652Z,25.21
2019-05-02T08:57:02.360Z,25.00
2019-05-02T08:59:30.075Z,24.68
2019-05-02T09:01:57.734Z,23.89
2019-05-02T09:04:29.048Z,24.49
2019-05-02T09:06:58.847Z,22.80
2019-05-02T09:09:28.063Z,21.22
2019-05-02T09:12:03.256Z,20.00
2019-05-02T09:14:23.662Z,20.26
2019-05-02T09:16:52.385Z,20.05
2019-05-02T09:19:21.336Z,20.93
2019-05-02T09:21:49.577Z,20.82
2019-05-02T09:24:21.151Z,21.18
2019-05-02T09:26:46.812Z,20.23
2019-05-02T09:29:14.491Z,21.19
2019-05-02T09:31:45.918Z,20.61
2019-05-02T09:34:11.854Z,18.88
2019-05-02T09:36:39.670Z,20.29
2019-05-02T09:39:07.425Z,20.10
2019-05-02T09:41:36.364Z,20.81
2019-05-02T09:44:04.491Z,20.40
2019-05-02T09:46:32.551Z,19.78
2019-05-02T09:49:04.305Z,21.22
2019-05-02T09:51:32.300Z,20.39
2019-05-02T09:54:04.703Z,19.01
2019-05-02T09:56:29.314Z,19.87
2019-05-02T09:59:04.766Z,19.64
2019-05-02T10:01:33.841Z,19.84
2019-05-02T10:04:02.345Z,18.79
2019-05-02T10:06:32.138Z,18.90
2019-05-02T10:08:59.689Z,19.68
2019-05-02T10:11:27.534Z,19.55
2019-05-02T10:13:55.529Z,19.37
2019-05-02T10:16:27.154Z,17.55
2019-05-02T10:18:52.909Z,17.96
2019-05-02T10:21:22.851Z,19.56
2019-05-02T10:23:51.780Z,19.19
2019-05-02T10:26:24.533Z,18.25
2019-05-02T10:28:53.248Z,18.77
2019-05-02T10:31:21.830Z,20.01
2019-05-02T10:33:49.660Z,19.15
2019-05-02T10:36:19.816Z,17.98
2019-05-02T10:38:48.958Z,17.76
2019-05-02T10:41:16.352Z,16.65
2019-05-02T10:43:46.941Z,16.82
2019-05-02T10:46:37.656Z,17.04
2019-05-02T10:49:12.506Z,18.21
2019-05-02T10:51:41.862Z,18.36
2019-05-02T10:54:11.890Z,17.39
2019-05-02T10:56:39.349Z,17.48
2019-05-02T10:59:07.019Z,18.49
2019-05-02T11:01:48.895Z,17.97
2019-05-02T11:04:16.585Z,18.45
2019-05-02T11:06:46.256Z,18.70
2019-05-02T11:09:16.735Z,17.17
2019-05-02T11:11:43.399Z,17.36
2019-05-02T11:14:23.482Z,16.98
2019-05-02T11:16:58.525Z,18.24
2019-05-02T11:19:52.303Z,19.56
2019-05-02T11:22:20.159Z,17.45
2019-05-02T11:24:47.856Z,18.56
2019-05-02T11:27:15.531Z,16.91
2019-05-02T11:29:43.166Z,17.46
2019-05-02T11:32:12.818Z,18.38
2019-05-02T11:34:42.065Z,19.57
2019-05-02T11:37:12.089Z,18.02
2019-05-02T11:39:49.054Z,18.76
2019-05-02T11:42:09.669Z,19.74
2019-05-02T11:44:37.334Z,18.85
2019-05-02T11:47:04.894Z,20.25
2019-05-02T11:49:32.599Z,20.03
2019-05-02T11:52:04.343Z,19.92
2019-05-02T11:54:31.845Z,19.52
2019-05-02T11:56:59.437Z,20.49
2019-05-02T11:59:28.079Z,20.40
2019-05-02T12:02:17.530Z,21.23
2019-05-02T12:04:41.803Z,20.73
2019-05-02T12:07:09.597Z,20.75
2019-05-02T12:09:37.331Z,20.78
2019-05-02T12:12:05.052Z,21.83
2019-05-02T12:14:36.233Z,21.30
2019-05-02T12:17:02.680Z,21.21
2019-05-02T12:19:32.245Z,21.89
2019-05-02T12:22:02.449Z,21.36
2019-05-02T12:24:31.891Z,20.65
2019-05-02T12:26:59.752Z,22.75
2019-05-02T12:29:27.480Z,20.99
2019-05-02T12:32:15.707Z,22.07
2019-05-02T12:34:43.503Z,22.84
2019-05-02T12:37:12.600Z,21.72
2019-05-02T12:39:42.566Z,20.21
2019-05-02T12:42:12.587Z,19.93
2019-05-02T12:44:40.054Z,20.66
2019-05-02T12:47:07.928Z,21.62
2019-05-02T12:49:35.516Z,21.48
2019-05-02T12:52:03.259Z,22.64
2019-05-02T12:54:32.528Z,21.77
2019-05-02T12:57:02.061Z,21.84
2019-05-02T12:59:29.819Z,22.13
2019-05-02T13:01:59.569Z,21.06
2019-05-02T13:04:28.928Z,21.59
2019-05-02T13:06:56.778Z,21.87
2019-05-02T13:09:24.916Z,22.44
2019-05-02T13:12:10.306Z,23.63
2019-05-02T13:14:42.653Z,23.17
2019-05-02T13:17:13.714Z,23.37
2019-05-02T13:19:55.381Z,24.87
2019-05-02T13:22:33.064Z,24.55
2019-05-02T13:25:04.211Z,25.39
2019-05-02T13:27:42.999Z,26.58
2019-05-02T13:30:03.376Z,27.01
2019-05-02T13:32:48.208Z,29.59
2019-05-02T13:35:34.258Z,27.74
2019-05-02T13:38:06.546Z,26.50
2019-05-02T13:40:41.677Z,26.34
2019-05-02T13:43:09.567Z,26.72
2019-05-02T13:46:09.801Z,26.90
2019-05-02T13:48:37.668Z,26.47
2019-05-02T13:51:05.502Z,28.14
2019-05-02T13:53:34.646Z,29.85
2019-05-02T13:56:22.113Z,28.64
2019-05-02T13:58:51.772Z,29.38
2019-05-02T14:01:19.791Z,28.03
2019-05-02T14:03:47.667Z,28.26
2019-05-02T14:06:15.554Z,27.94
2019-05-02T14:08:58.081Z,26.67
2019-05-02T14:11:44.397Z,26.44
2019-05-02T14:14:12.569Z,27.59
2019-05-02T14:16:41.890Z,27.28
2019-05-02T14:19:09.781Z,28.97
2019-05-02T14:21:37.443Z,27.56
2019-05-02T14:24:05.252Z,28.05
2019-05-02T14:26:33.270Z,28.53
2019-05-02T14:29:02.568Z,30.76
2019-05-02T14:31:32.233Z,28.48
2019-05-02T14:34:18.159Z,28.07
2019-05-02T14:36:45.770Z,29.67
2019-05-02T14:39:13.478Z,28.67
2019-05-02T14:41:44.429Z,28.01
2019-05-02T14:44:11.981Z,29.03
2019-05-02T14:46:39.744Z,28.51
2019-05-02T14:49:07.613Z,28.32
2019-05-02T14:51:36.717Z,28.74
2019-05-02T14:54:08.117Z,28.63
2019-05-02T14:56:52.188Z,28.91
2019-05-02T14:59:22.581Z,29.14
2019-05-02T15:01:57.932Z,29.45
2019-05-02T15:04:23.136Z,28.84
2019-05-02T15:06:52.588Z,29.46
2019-05-02T15:09:22.531Z,30.02
2019-05-02T15:11:59.436Z,31.04
2019-05-02T15:14:32.943Z,30.71
2019-05-02T15:17:02.555Z,30.61
2019-05-02T15:19:30.316Z,29.58
2019-05-02T15:21:57.940Z,29.74
2019-05-02T15:24:27.778Z,30.20
2019-05-02T15:26:55.076Z,29.60
2019-05-02T15:29:27.127Z,29.89
2019-05-02T15:32:12.718Z,30.55
2019-05-02T15:35:12.941Z,30.67
2019-05-02T15:37:41.724Z,30.20
2019-05-02T15:40:43.241Z,30.79
2019-05-02T15:42:48.550Z,30.97
2019-05-02T15:45:16.477Z,30.89
2019-05-02T15:47:45.458Z,30.89
2019-05-02T15:50:14.815Z,31.53
2019-05-02T15:52:45.887Z,31.91
2019-05-02T15:55:13.905Z,31.46
2019-05-02T15:57:45.870Z,32.08
2019-05-02T16:00:21.705Z,31.24
2019-05-02T16:02:44.132Z,31.56
2019-05-02T16:05:12.984Z,31.56
2019-05-02T16:07:43.318Z,31.25
2019-05-02T16:10:13.250Z,31.80
2019-05-02T16:12:43.182Z,32.71
2019-05-02T16:15:18.186Z,32.71
2019-05-02T16:17:42.308Z,33.59
2019-05-02T16:20:17.219Z,33.84
2019-05-02T16:22:49.557Z,34.09
2019-05-02T16:25:14.572Z,34.09
2019-05-02T16:27:44.361Z,34.57
2019-05-02T16:30:14.254Z,34.22
2019-05-02T16:32:58.525Z,34.41
2019-05-02T16:35:27.134Z,35.08
2019-05-02T16:37:56.073Z,37.27
2019-05-02T16:40:29.754Z,38.32
2019-05-02T16:42:53.860Z,39.06
2019-05-02T16:45:22.828Z,39.22
2019-05-02T16:47:58.800Z,39.77
2019-05-02T16:50:22.915Z,39.92
2019-05-02T16:52:52.880Z,40.19
2019-05-02T16:55:26.341Z,40.16
2019-05-02T16:57:51.916Z,39.75
2019-05-02T17:00:24.862Z,40.03
2019-05-02T17:02:52.471Z,38.84
2019-05-02T17:05:21.973Z,38.85
2019-05-02T17:07:56.395Z,38.86
2019-05-02T17:10:36.647Z,39.38
2019-05-02T17:13:04.345Z,38.16
2019-05-02T17:15:35.461Z,38.10
2019-05-02T17:18:05.107Z,38.68
2019-05-02T17:20:32.707Z,39.72
2019-05-02T17:23:05.368Z,39.40
2019-05-02T17:25:32.096Z,39.15
2019-05-02T17:28:02.381Z,39.21
2019-05-02T17:30:33.711Z,39.68
2019-05-02T17:32:58.858Z,39.76
2019-05-02T17:35:26.637Z,40.61
2019-05-02T17:37:54.204Z,40.29
2019-05-02T17:40:25.885Z,42.09
2019-05-02T17:42:52.532Z,41.01
2019-05-02T17:45:20.295Z,41.32
2019-05-02T17:47:47.874Z,42.05
2019-05-02T17:50:42.251Z,42.35
2019-05-02T17:53:11.663Z,43.57
2019-05-02T17:55:40.768Z,42.72
2019-05-02T17:58:12.494Z,43.83
2019-05-02T18:00:43.064Z,44.51
2019-05-02T18:03:12.429Z,45.27
2019-05-02T18:05:41.877Z,46.99
2019-05-02T18:08:10.869Z,47.92
2019-05-02T18:10:39.303Z,47.55
2019-05-02T18:13:07.093Z,48.35
2019-05-02T18:15:36.240Z,49.42
2019-05-02T18:18:06.831Z,49.52
2019-05-02T18:20:37.272Z,49.82
2019-05-02T18:23:05.798Z,49.72
2019-05-02T18:25:32.863Z,49.96
2019-05-02T18:28:02.278Z,50.47
2019-05-02T18:30:29.913Z,50.13
2019-05-02T18:33:02.234Z,50.70
2019-05-02T18:35:27.008Z,51.66
2019-05-02T18:37:54.608Z,51.95
2019-05-02T18:40:27.674Z,52.20
2019-05-02T18:42:52.066Z,52.61
2019-05-02T18:45:25.400Z,51.67
2019-05-02T18:47:54.033Z,51.31
2019-05-02T18:50:36.751Z,52.21
2019-05-02T18:53:03.941Z,52.65
2019-05-02T18:55:31.824Z,52.66
2019-05-02T18:58:02.275Z,54.00
2019-05-02T19:00:37.814Z,53.83
2019-05-02T19:03:02.747Z,54.47
2019-05-02T19:05:32.558Z,54.76
2019-05-02T19:08:02.467Z,53.88
2019-05-02T19:10:32.221Z,54.62
2019-05-02T19:13:00.994Z,55.26
2019-05-02T19:15:34.370Z,55.88
2019-05-02T19:18:02.453Z,56.16
2019-05-02T19:21:03.156Z,56.97
2019-05-02T19:23:32.059Z,56.45
2019-05-02T19:26:03.752Z,56.60
2019-05-02T19:28:48.073Z,56.77
2019-05-02T19:31:15.673Z,56.79
2019-05-02T19:33:44.315Z,56.70
2019-05-02T19:36:16.175Z,57.45
2019-05-02T19:38:42.834Z,57.65
2019-05-02T19:41:11.663Z,57.84
2019-05-02T19:43:40.496Z,57.96
2019-05-02T19:46:08.991Z,57.66
2019-05-02T19:48:39.007Z,58.02
2019-05-02T19:51:12.688Z,59.64
2019-05-02T19:53:35.903Z,59.11
2019-05-02T19:56:03.633Z,58.12
2019-05-02T19:58:32.058Z,59.27
2019-05-02T20:01:02.369Z,59.12
2019-05-02T20:03:32.376Z,59.62
2019-05-02T20:06:02.267Z,59.95
2019-05-02T20:08:29.903Z,60.19
2019-05-02T20:10:58.492Z,61.38
2019-05-02T20:13:28.548Z,61.04
2019-05-02T20:16:05.770Z,61.19
2019-05-02T20:18:36.669Z,61.20
2019-05-02T20:21:24.202Z,61.28
2019-05-02T20:23:48.905Z,61.52
2019-05-02T20:26:17.160Z,61.51
2019-05-02T20:28:45.136Z,62.33
2019-05-02T20:31:12.717Z,62.98
2019-05-02T20:33:42.895Z,63.21
2019-05-02T20:36:12.365Z,62.79
2019-05-02T20:38:41.773Z,62.69
2019-05-02T20:41:10.198Z,61.62
2019-05-02T20:43:37.875Z,62.45
2019-05-02T20:46:05.490Z,62.47
2019-05-02T20:48:33.463Z,62.49
2019-05-02T20:51:02.677Z,62.38
2019-05-02T20:53:31.840Z,61.25
2019-05-02T20:56:01.793Z,60.44
2019-05-02T20:58:29.688Z,61.74
2019-05-02T21:01:07.835Z,61.85
2019-05-02T21:03:26.909Z,61.66
2019-05-02T21:06:04.837Z,60.50
2019-05-02T21:08:52.434Z,58.30
2019-05-02T21:11:19.898Z,55.90
2019-05-02T21:13:47.528Z,54.56
2019-05-02T21:16:15.144Z,54.02
2019-05-02T21:18:42.818Z,54.22
2019-05-02T21:21:12.419Z,53.11
2019-05-02T21:23:44.825Z,52.52
2019-05-02T21:26:09.414Z,52.13
2019-05-02T21:28:37.076Z,51.78
2019-05-02T21:31:04.722Z,51.69
2019-05-02T21:33:35.582Z,51.33
2019-05-02T21:36:03.373Z,50.67
2019-05-02T21:38:32.025Z,51.63
2019-05-02T21:40:59.713Z,50.35
2019-05-02T21:43:27.421Z,49.96
2019-05-02T21:45:55.200Z,50.14
2019-05-02T21:48:24.324Z,50.19
2019-05-02T21:51:12.543Z,49.65
2019-05-02T21:53:58.279Z,49.97
2019-05-02T21:56:42.932Z,49.73
2019-05-02T21:59:12.144Z,49.43
2019-05-02T22:01:53.854Z,49.63
2019-05-02T22:04:22.739Z,49.37
2019-05-02T22:06:52.180Z,49.40
2019-05-02T22:09:20.187Z,49.73
2019-05-02T22:11:47.831Z,49.64
2019-05-02T22:14:15.649Z,48.93
2019-05-02T22:16:43.372Z,48.77
2019-05-02T22:19:11.104Z,49.27
2019-05-02T22:21:38.851Z,49.61
2019-05-02T22:24:11.265Z,48.80
2019-05-02T22:26:36.359Z,49.57
2019-05-02T22:29:04.203Z,49.04
2019-05-02T22:31:32.457Z,49.19
2019-05-02T22:34:01.996Z,49.07
2019-05-02T22:36:30.016Z,49.10
2019-05-02T22:39:32.345Z,49.05
2019-05-02T22:42:01.932Z,49.12
2019-05-02T22:44:29.661Z,48.80
2019-05-02T22:46:57.325Z,48.57
2019-05-02T22:49:24.875Z,48.36
2019-05-02T22:51:52.536Z,49.04
2019-05-02T22:54:27.771Z,49.07
2019-05-02T22:56:51.946Z,49.22
2019-05-02T22:59:19.479Z,49.55
2019-05-02T23:01:47.142Z,48.30
2019-05-02T23:04:14.750Z,48.63
2019-05-02T23:06:44.238Z,48.46
2019-05-02T23:09:12.908Z,48.54
2019-05-02T23:11:42.574Z,48.07
2019-05-02T23:14:12.249Z,48.59
2019-05-02T23:16:42.337Z,48.50
2019-05-02T23:19:09.452Z,48.21
2019-05-02T23:21:37.143Z,48.39
2019-05-02T23:24:09.646Z,48.42
2019-05-02T23:27:02.636Z,47.72
2019-05-02T23:29:31.816Z,48.22
2019-05-02T23:31:59.566Z,48.19
2019-05-02T23:34:27.222Z,47.91
2019-05-02T23:36:54.970Z,47.63
2019-05-02T23:39:22.609Z,47.77
2019-05-02T23:41:50.215Z,47.62
2019-05-02T23:44:17.787Z,47.74
2019-05-02T23:46:45.440Z,47.81
2019-05-02T23:49:13.021Z,47.97
2019-05-02T23:51:42.625Z,47.44
2019-05-02T23:54:10.176Z,47.47
2019-05-02T23:56:37.857Z,47.56
2019-05-02T23:59:05.594Z,46.92
